Latest Coastal Weather Observations for Townsville

IDQ60701

Issued at 3:31 pm EST Saturday 31 January 2015 (issued every 10 minutes, with the page automatically refreshed every 10 minutes)

About coastal observations | Map of coastal stations | Coastal observations for QLD | Marine services | Other Formats
Station Details ID: 032040 Name: TOWNSVILLE AERO Lat: -19.25 Lon: 146.77 Height: 4.34 m
Data from the previous 72 hours. | See also: Recent months at Townsville
Date/Time
EST
Temp

°C
Wind Pressure Rain
since 9am
mm
Weather Cloud Vis
km
Sea
Height
m
Swell
Dir
 
Speed
knots
Gust
knots
hPa Trend Height
m
Period
s
Dir
31/03:00pm 31.4 ENE 13 16 1005.2 S 0.0 Fine Partly cloudy 35 - - - -
31/02:30pm 31.5 NE 12 15 1005.6 - 0.0 - Mostly clear 10 - - - -
31/02:00pm 31.7 ENE 11 14 1005.8 - 0.0 - Mostly clear 10 - - - -
31/01:30pm 31.6 ENE 11 15 1006.0 - 0.0 - - 10 - - - -
31/01:00pm 31.0 E 9 12 1006.3 - 0.0 - Mostly clear 10 - - - -
31/12:30pm 30.9 ENE 12 15 1006.6 - 0.0 - Mostly clear 10 - - - -
31/12:00pm 30.8 ENE 12 16 1006.9 F 0.0 Fine Mostly clear 35 - - - -
31/11:30am 30.9 NE 9 14 1007.3 - 0.0 - Mostly clear 10 - - - -
31/11:00am 30.8 NE 9 11 1007.6 - 0.0 - Mostly clear 10 - - - -
31/10:30am 30.3 ENE 7 10 1008.0 - 0.0 - Mostly clear 10 - - - -
31/10:00am 30.4 ENE 8 10 1008.2 - 0.0 - Mostly clear 10 - - - -
31/09:30am 29.9 NE 6 9 1008.3 - 0.0 - Mostly clear 10 - - - -
31/09:00am 29.6 ESE 3 7 1008.1 S 1.8 Fine Mostly clear 40 - - - -
31/08:30am 28.7 S 3 4 1007.9 - 1.8 - Mostly clear 10 - - - -
31/08:00am 27.9 SSW 5 6 1007.8 - 1.8 - Mostly clear 10 - - - -
31/07:30am 27.2 CALM 0 0 1007.9 - 1.8 - Mostly clear 10 - - - -
31/07:00am 26.0 CALM 0 0 1007.7 - 1.8 - Mostly clear 10 - - - -
31/06:30am 24.8 CALM 0 0 1007.5 - 1.8 - Mostly clear 10 - - - -
31/06:00am 24.5 CALM 0 0 1006.8 R 1.8 Distant precip. Mostly clear 40 - - - -
31/05:30am 24.6 CALM 0 0 1006.6 - 1.8 - - 10 - - - -
31/05:00am 24.5 S 6 7 1006.2 - 1.8 - - 10 - - - -
31/04:30am 24.7 S 3 7 1006.1 - 1.8 - Partly cloudy 10 - - - -
31/04:00am 24.5 CALM 0 0 1006.2 - 1.8 - Partly cloudy 10 - - - -
31/03:30am 24.3 CALM 0 0 1006.2 - 1.8 - - 10 - - - -
31/03:00am 24.5 CALM 0 0 1006.1 - 1.8 - - 10 - - - -
31/02:30am 24.6 SSW 5 5 1006.6 - 1.8 - Partly cloudy 10 - - - -
31/02:00am 24.7 SW 5 5 1006.7 - 1.8 - - 10 - - - -
31/01:30am 24.7 CALM 0 0 1006.9 - 1.8 - - 10 - - - -
31/01:00am 24.7 CALM 0 0 1007.2 - 1.8 - Partly cloudy 10 - - - -
31/12:33am 24.6 WNW 1 5 1007.5 - 1.6 - Partly cloudy 10 - - - -
31/12:30am 24.7 WNW 3 6 1007.4 - 1.6 - Partly cloudy 10 - - - -
31/12:00am 24.4 NNW 6 8 1007.5 - 1.6 - Cloudy 10 - - - -
 
Date/Time
EST
Temp

°C
Wind Pressure Rain
since 9am
mm
Weather Cloud Vis
km
Sea
Height
m
Swell
Dir
 
Speed
knots
Gust
knots
hPa Trend Height
m
Period
s
Dir
30/11:57pm 24.5 NNW 5 8 1007.5 - 1.6 - Partly cloudy 10 - - - -
30/11:30pm 24.6 CALM 0 0 1007.6 - 1.6 - Partly cloudy 10 - - - -
30/11:00pm 24.7 SW 3 5 1007.9 - 1.6 - - 10 - - - -
30/10:30pm 24.5 WSW 5 6 1007.7 - 1.6 - Mostly clear 10 - - - -
30/10:00pm 24.5 WSW 5 7 1007.6 - 1.6 - Mostly clear 10 - - - -
30/09:30pm 24.3 W 5 7 1007.5 - 1.6 - Mostly clear 10 - - - -
30/09:00pm 24.4 WSW 6 8 1007.2 F 1.6 Recent precip. Cloudy 45 - - - -
30/08:30pm 24.9 SW 5 7 1007.3 - 1.6 Rain Mostly clear 10 - - - -
30/08:00pm 24.7 ESE 4 5 1007.3 - 1.6 - Mostly clear 10 - - - -
30/07:30pm 24.4 NNE 3 4 1006.7 - 1.6 Rain Mostly clear 10 - - - -
30/07:12pm 24.3 NNW 1 4 1006.4 - 1.4 Rain Mostly clear 10 - - - -
30/07:00pm 24.0 NW 5 8 1006.8 - 1.2 Rain Mostly clear 9 - - - -
30/06:45pm 23.9 S 5 7 1006.9 - 0.8 Thunder Mostly clear 10 - - - -
30/06:30pm 23.0 ESE 10 13 1006.2 - 0.4 Showers Mostly clear 7 - - - -
30/06:20pm 23.3 SE 16 19 1005.4 - 0.0 Showers Mostly clear 5 - - - -
30/06:10pm 24.2 S 24 31 1005.6 - 0.0 Thunderstorm Mostly clear 4 - - - -
30/06:00pm 26.3 SSE 17 25 1005.5 R 0.0 Thunderstorm Mostly cloudy 4 - - - -
30/05:55pm 26.4 SE 22 29 1005.5 - 0.0 Thunder Partly cloudy 5 - - - -
30/05:47pm 29.1 E 11 15 1005.1 - 0.0 Thunder Mostly clear 6 - - - -
30/05:30pm 29.1 E 14 17 1004.4 - 0.0 Thunder Mostly clear 10 - - - -
30/05:00pm 30.0 ENE 15 19 1003.9 - 0.0 - Mostly clear 10 - - - -
30/04:30pm 30.1 ENE 14 17 1003.8 - 0.0 - Mostly clear 10 - - - -
30/04:00pm 30.4 NE 13 17 1003.7 - 0.0 - Mostly clear 10 - - - -
30/03:30pm 30.1 ENE 11 16 1003.8 - 0.0 - Mostly clear 10 - - - -
30/03:00pm 29.6 ENE 13 17 1004.1 R 0.0 Showers Mostly cloudy 9 - - - -
30/02:30pm 30.3 ENE 16 21 1004.6 - 0.0 - Mostly clear 10 - - - -
30/02:00pm 31.0 ENE 17 20 1004.5 - 0.0 - Mostly clear 10 - - - -
30/01:49pm 30.9 ENE 17 21 1004.7 - 0.0 - Mostly clear 10 - - - -
30/01:35pm 31.7 ENE 17 22 1004.8 - 0.0 Thunder Mostly clear 10 - - - -
30/01:30pm 31.3 ENE 17 22 1004.9 - 0.0 - Mostly clear 10 - - - -
30/01:00pm 31.9 ENE 18 22 1005.2 - 0.0 - Mostly clear 10 - - - -
30/12:30pm 31.4 ENE 15 19 1005.7 - 0.0 - Mostly clear 10 - - - -
30/12:00pm 31.5 ENE 13 18 1005.6 F 0.0 Distant precip. Partly cloudy 35 - - - -
30/11:30am 31.5 E 11 15 1006.2 - 0.0 - Mostly clear 10 - - - -
30/11:00am 31.4 E 11 16 1006.6 - 0.0 - Mostly clear 10 - - - -
30/10:30am 30.9 E 10 14 1006.8 - 0.0 - Mostly clear 10 - - - -
30/10:00am 30.5 ESE 11 14 1006.8 - 0.0 - Mostly clear 10 - - - -
30/09:30am 30.8 SE 10 14 1006.8 - 0.0 - Mostly clear 10 - - - -
30/09:00am 29.9 SE 11 16 1006.9 R 0.0 Distant precip. Mostly clear 30 - - - -
30/08:30am 29.0 SE 9 12 1006.9 - 0.0 - Mostly clear 10 - - - -
30/08:00am 28.4 SE 8 11 1006.6 - 0.0 - Mostly clear 10 - - - -
30/07:30am 27.8 SE 7 9 1006.3 - 0.0 - Mostly clear 10 - - - -
30/07:00am 26.9 SE 5 7 1006.1 - 0.0 - Mostly clear 10 - - - -
30/06:30am 25.9 SE 7 9 1005.7 - 0.0 - Mostly clear 10 - - - -
30/06:00am 25.3 SE 7 9 1005.3 R 0.0 Distant precip. Partly cloudy 30 - - - -
30/05:30am 25.2 SSE 7 8 1005.2 - 0.0 - - 10 - - - -
30/05:00am 25.1 SE 8 10 1004.9 - 0.0 - - 10 - - - -
30/04:30am 25.2 SSE 7 9 1004.7 - 0.0 - - 10 - - - -
30/04:00am 25.4 SE 7 9 1004.9 - 0.0 - Partly cloudy 10 - - - -
30/03:30am 25.3 ESE 13 16 1004.8 - 0.0 - Partly cloudy 10 - - - -
30/03:00am 25.9 SE 9 12 1004.4 - 0.0 - Cloudy 10 - - - -
30/02:30am 25.9 SE 9 11 1004.5 - 0.0 - - 10 - - - -
30/02:00am 26.0 SE 13 18 1004.7 - 0.0 - - 10 - - - -
30/01:56am 26.1 SE 11 18 1004.8 - 0.0 - - 10 - - - -
30/01:46am 26.6 SE 9 11 1004.8 - 0.0 - Partly cloudy 10 - - - -
30/01:30am 26.8 SE 9 12 1005.0 - 0.0 - Partly cloudy 10 - - - -
30/01:00am 26.8 ESE 11 14 1005.3 - 0.0 - Partly cloudy 10 - - - -
30/12:30am 26.8 ESE 14 18 1005.6 - 0.0 - Partly cloudy 10 - - - -
30/12:00am 28.9 ENE 11 15 1005.8 - 0.0 - - 10 - - - -
 
Date/Time
EST
Temp

°C
Wind Pressure Rain
since 9am
mm
Weather Cloud Vis
km
Sea
Height
m
Swell
Dir
 
Speed
knots
Gust
knots
hPa Trend Height
m
Period
s
Dir
29/11:30pm 28.9 E 11 15 1005.9 - 0.0 - Partly cloudy 10 - - - -
29/11:00pm 29.1 ENE 12 17 1006.1 - 0.0 - Partly cloudy 10 - - - -
29/10:30pm 29.1 ENE 10 15 1006.1 - 0.0 - Mostly clear 10 - - - -
29/10:00pm 29.0 ENE 10 13 1005.7 - 0.0 - Mostly clear 10 - - - -
29/09:30pm 29.0 ENE 9 11 1005.5 - 0.0 - Mostly clear 10 - - - -
29/09:00pm 29.1 E 10 14 1004.9 R 0.0 Distant precip. Mostly clear 30 - - - -
29/08:30pm 29.2 E 12 16 1004.7 - 0.0 - Mostly clear 10 - - - -
29/08:00pm 29.1 E 12 16 1004.3 - 0.0 - Mostly clear 10 - - - -
29/07:30pm 29.1 E 12 15 1003.7 - 0.0 - Mostly clear 10 - - - -
29/07:00pm 29.3 E 8 11 1004.1 - 0.0 - Mostly clear 10 - - - -
29/06:30pm 29.4 ENE 10 13 1003.5 - 0.0 - Mostly clear 10 - - - -
29/06:00pm 29.7 ENE 13 15 1002.7 R 0.0 Distant precip. Partly cloudy 30 - - - -
29/05:30pm 30.5 ENE 13 17 1002.6 - 0.0 - Mostly clear 10 - - - -
29/05:00pm 30.5 ENE 14 18 1002.4 - 0.0 Thunder Mostly clear 10 - - - -
29/04:30pm 31.0 ENE 14 18 1002.2 - 0.0 - Mostly clear 10 - - - -
29/04:00pm 31.8 ENE 15 19 1001.9 - 0.0 - Mostly clear 10 - - - -
29/03:30pm 31.2 ENE 16 20 1001.8 - 0.0 - Mostly clear 10 - - - -
29/03:00pm 31.7 ENE 17 20 1002.0 R 0.0 Distant precip. Mostly clear 25 - - - -
29/02:30pm 31.7 ENE 17 20 1002.4 - 0.0 - Mostly clear 10 - - - -
29/02:00pm 32.0 ENE 17 20 1002.6 - 0.0 - Mostly clear 10 - - - -
29/01:30pm 31.8 ENE 17 21 1002.7 - 0.0 - Mostly clear 10 - - - -
29/01:00pm 32.1 ENE 16 21 1002.9 - 0.0 - Mostly clear 10 - - - -
29/12:30pm 32.6 ENE 16 20 1003.1 - 0.0 - Mostly clear 10 - - - -
29/12:00pm 31.7 NE 16 20 1003.1 R 0.0 Haze Partly cloudy 30 - - - -
29/11:30am 32.0 ENE 16 19 1003.3 - 0.0 - Mostly clear 10 - - - -
29/11:00am 31.9 ENE 16 20 1003.3 - 0.0 - Mostly clear 10 - - - -
29/10:30am 31.8 ENE 14 17 1003.4 - 0.0 - Mostly clear 10 - - - -
29/10:00am 31.4 ENE 11 17 1003.3 - 0.0 - Mostly clear 10 - - - -
29/09:30am 31.6 ENE 12 14 1003.5 - 0.0 - Mostly clear 10 - - - -
29/09:00am 31.5 E 11 15 1003.5 R 0.0 Haze Partly cloudy 30 - - - -
29/08:30am 31.2 E 9 11 1003.3 - 0.0 - Partly cloudy 10 - - - -
29/08:00am 29.8 E 8 11 1002.8 - 0.0 - Partly cloudy 10 - - - -
29/07:30am 29.6 SE 8 11 1002.7 - 0.0 - Mostly clear 10 - - - -
29/07:00am 28.5 SE 8 10 1002.5 - 0.0 - Mostly clear 10 - - - -
29/06:30am 27.8 SE 7 9 1002.2 - 0.0 - Mostly clear 10 - - - -
29/06:00am 27.3 SSE 6 8 1001.8 R 0.0 Haze Partly cloudy 25 - - - -
29/05:30am 27.2 S 6 7 1001.6 - 0.0 - - 10 - - - -
29/05:00am 27.3 SSE 6 7 1001.4 - 0.0 - - 10 - - - -
29/04:30am 27.5 SE 7 8 1000.9 - 0.0 - - 10 - - - -
29/04:00am 27.5 SSE 6 7 1000.9 - 0.0 - - 10 - - - -
29/03:30am 27.2 SSE 3 4 1000.8 - 0.0 - - 10 - - - -
29/03:00am 27.7 S 4 5 1000.6 - 0.0 - - 10 - - - -
29/02:30am 27.5 SSE 5 5 1000.7 - 0.0 - - 10 - - - -
29/02:00am 27.8 CALM 0 0 1001.0 - 0.0 - - 10 - - - -
29/01:30am 27.8 CALM 0 0 1001.2 - 0.0 - - 10 - - - -
29/01:00am 28.3 CALM 0 0 1001.4 - 0.0 - - 10 - - - -
29/12:30am 28.1 CALM 0 0 1001.3 - 0.0 - - 10 - - - -
29/12:00am 28.3 CALM 0 0 1001.5 - 0.0 - - 10 - - - -
 
Date/Time
EST
Temp

°C
Wind Pressure Rain
since 9am
mm
Weather Cloud Vis
km
Sea
Height
m
Swell
Dir
 
Speed
knots
Gust
knots
hPa Trend Height
m
Period
s
Dir
28/11:30pm 28.6 W 5 6 1001.9 - 0.0 - - 10 - - - -
28/11:00pm 28.3 CALM 0 3 1002.0 - 0.0 - - 10 - - - -
28/10:30pm 28.4 NNW 3 4 1002.2 - 0.0 - - 10 - - - -
28/10:00pm 28.5 NNW 4 6 1002.0 - 0.0 - - 10 - - - -
28/09:30pm 28.7 N 5 7 1001.9 - 0.0 - - 10 - - - -
28/09:00pm 29.1 NNW 6 7 1001.4 R 0.0 Lightning Mostly clear 35 - - - -
28/08:30pm 28.8 NNW 1 5 1001.1 - 0.0 - - 10 - - - -
28/08:00pm 29.4 CALM 0 0 1000.8 - 0.0 - - 10 - - - -
28/07:30pm 29.1 NNW 5 5 1000.6 - 0.0 - - 10 - - - -
28/07:00pm 30.0 N 5 6 1000.3 - 0.0 - - 10 - - - -
28/06:30pm 30.7 N 6 8 999.8 - 0.0 - Mostly clear 10 - - - -
28/06:00pm 31.4 N 6 8 999.1 R 0.0 Fine Mostly clear 35 - - - -
28/05:30pm 31.8 N 8 10 998.7 - 0.0 - Mostly clear 10 - - - -
28/05:00pm 32.0 NNW 7 10 998.7 - 0.0 - Mostly clear 10 - - - -
28/04:30pm 32.7 N 8 11 998.5 - 0.0 - Mostly clear 10 - - - -
28/04:00pm 33.3 ENE 7 11 998.4 - 0.0 - Mostly clear 10 - - - -

Other Formats:

Comma delimited format used in spreadsheet applications
http://www.bom.gov.au/fwo/IDQ60701/IDQ60701.94294.axf

JavaScript Object Notation format (JSON) in row-major order
http://www.bom.gov.au/fwo/IDQ60701/IDQ60701.94294.json